sensor_id;sensor_type;location;lat;lon;timestamp;P1;durP1;ratioP1;P2;durP2;ratioP2
78508;SDS011;67802;50.846;7.958;2023-12-04T00:00:22;5.65;;;2.70;;
78508;SDS011;67802;50.846;7.958;2023-12-04T00:02:47;4.90;;;2.40;;
78508;SDS011;67802;50.846;7.958;2023-12-04T00:05:13;5.60;;;2.45;;
78508;SDS011;67802;50.846;7.958;2023-12-04T00:07:38;4.88;;;2.40;;
78508;SDS011;67802;50.846;7.958;2023-12-04T00:10:03;5.00;;;2.40;;
78508;SDS011;67802;50.846;7.958;2023-12-04T00:12:29;5.65;;;2.42;;
78508;SDS011;67802;50.846;7.958;2023-12-04T00:14:54;5.22;;;2.40;;
78508;SDS011;67802;50.846;7.958;2023-12-04T00:17:20;4.93;;;2.33;;
78508;SDS011;67802;50.846;7.958;2023-12-04T00:19:45;5.05;;;2.65;;
78508;SDS011;67802;50.846;7.958;2023-12-04T00:22:10;4.75;;;2.42;;
78508;SDS011;67802;50.846;7.958;2023-12-04T00:24:36;4.63;;;2.28;;
78508;SDS011;67802;50.846;7.958;2023-12-04T00:27:01;6.38;;;2.65;;
78508;SDS011;67802;50.846;7.958;2023-12-04T00:29:26;4.82;;;2.50;;
78508;SDS011;67802;50.846;7.958;2023-12-04T00:31:52;5.30;;;2.67;;
78508;SDS011;67802;50.846;7.958;2023-12-04T00:34:17;5.75;;;2.63;;
78508;SDS011;67802;50.846;7.958;2023-12-04T00:36:42;4.70;;;2.50;;
78508;SDS011;67802;50.846;7.958;2023-12-04T00:39:08;4.78;;;2.38;;
78508;SDS011;67802;50.846;7.958;2023-12-04T00:41:33;4.85;;;2.45;;
78508;SDS011;67802;50.846;7.958;2023-12-04T00:43:59;5.10;;;2.38;;
78508;SDS011;67802;50.846;7.958;2023-12-04T00:46:24;4.43;;;2.13;;
78508;SDS011;67802;50.846;7.958;2023-12-04T00:48:50;5.45;;;2.40;;
78508;SDS011;67802;50.846;7.958;2023-12-04T00:51:15;5.22;;;2.53;;
78508;SDS011;67802;50.846;7.958;2023-12-04T00:53:40;4.55;;;2.50;;
78508;SDS011;67802;50.846;7.958;2023-12-04T00:56:06;4.70;;;2.47;;
78508;SDS011;67802;50.846;7.958;2023-12-04T00:58:31;5.93;;;2.45;;
78508;SDS011;67802;50.846;7.958;2023-12-04T01:00:57;4.68;;;2.40;;
78508;SDS011;67802;50.846;7.958;2023-12-04T01:03:22;5.03;;;2.33;;
78508;SDS011;67802;50.846;7.958;2023-12-04T01:05:47;4.70;;;2.25;;
78508;SDS011;67802;50.846;7.958;2023-12-04T01:08:13;4.57;;;2.15;;
78508;SDS011;67802;50.846;7.958;2023-12-04T01:10:38;4.53;;;2.33;;
78508;SDS011;67802;50.846;7.958;2023-12-04T01:13:04;4.75;;;2.50;;
78508;SDS011;67802;50.846;7.958;2023-12-04T01:15:30;5.03;;;2.75;;
78508;SDS011;67802;50.846;7.958;2023-12-04T01:17:55;5.22;;;2.50;;
78508;SDS011;67802;50.846;7.958;2023-12-04T01:20:20;5.22;;;2.60;;
78508;SDS011;67802;50.846;7.958;2023-12-04T01:22:46;5.00;;;2.60;;
78508;SDS011;67802;50.846;7.958;2023-12-04T01:25:11;5.13;;;2.22;;
78508;SDS011;67802;50.846;7.958;2023-12-04T01:27:36;4.85;;;2.20;;
78508;SDS011;67802;50.846;7.958;2023-12-04T01:30:02;4.78;;;2.40;;
78508;SDS011;67802;50.846;7.958;2023-12-04T01:32:29;4.55;;;2.33;;
78508;SDS011;67802;50.846;7.958;2023-12-04T01:34:54;5.40;;;2.63;;
78508;SDS011;67802;50.846;7.958;2023-12-04T01:37:20;4.70;;;2.40;;
78508;SDS011;67802;50.846;7.958;2023-12-04T01:39:45;4.60;;;2.30;;
78508;SDS011;67802;50.846;7.958;2023-12-04T01:42:10;4.80;;;2.45;;
78508;SDS011;67802;50.846;7.958;2023-12-04T01:44:35;4.60;;;2.20;;
78508;SDS011;67802;50.846;7.958;2023-12-04T01:47:01;5.37;;;2.80;;
78508;SDS011;67802;50.846;7.958;2023-12-04T01:49:27;4.82;;;2.45;;
78508;SDS011;67802;50.846;7.958;2023-12-04T01:51:53;5.47;;;2.63;;
78508;SDS011;67802;50.846;7.958;2023-12-04T01:54:18;4.32;;;2.15;;
78508;SDS011;67802;50.846;7.958;2023-12-04T01:56:44;4.70;;;2.40;;
78508;SDS011;67802;50.846;7.958;2023-12-04T01:59:11;4.22;;;2.15;;
78508;SDS011;67802;50.846;7.958;2023-12-04T02:01:36;5.53;;;2.55;;
78508;SDS011;67802;50.846;7.958;2023-12-04T02:04:02;5.07;;;2.33;;
78508;SDS011;67802;50.846;7.958;2023-12-04T02:06:27;4.88;;;2.33;;
78508;SDS011;67802;50.846;7.958;2023-12-04T02:08:53;4.93;;;2.30;;
78508;SDS011;67802;50.846;7.958;2023-12-04T02:11:18;5.70;;;2.55;;
78508;SDS011;67802;50.846;7.958;2023-12-04T02:13:43;5.22;;;2.60;;
78508;SDS011;67802;50.846;7.958;2023-12-04T02:16:09;4.57;;;2.33;;
78508;SDS011;67802;50.846;7.958;2023-12-04T02:18:37;4.63;;;2.17;;
78508;SDS011;67802;50.846;7.958;2023-12-04T02:21:03;4.63;;;2.08;;
78508;SDS011;67802;50.846;7.958;2023-12-04T02:23:28;4.45;;;2.28;;
78508;SDS011;67802;50.846;7.958;2023-12-04T02:26:13;5.07;;;2.45;;
78508;SDS011;67802;50.846;7.958;2023-12-04T02:28:42;4.55;;;2.35;;
78508;SDS011;67802;50.846;7.958;2023-12-04T02:31:11;5.05;;;2.40;;
78508;SDS011;67802;50.846;7.958;2023-12-04T02:33:36;4.85;;;2.25;;
78508;SDS011;67802;50.846;7.958;2023-12-04T02:36:04;4.85;;;2.53;;
78508;SDS011;67802;50.846;7.958;2023-12-04T02:38:30;4.35;;;2.20;;
78508;SDS011;67802;50.846;7.958;2023-12-04T02:40:56;4.88;;;2.63;;
78508;SDS011;67802;50.846;7.958;2023-12-04T02:43:21;4.80;;;2.55;;
78508;SDS011;67802;50.846;7.958;2023-12-04T02:45:46;4.32;;;2.30;;
78508;SDS011;67802;50.846;7.958;2023-12-04T02:48:12;5.03;;;2.50;;
78508;SDS011;67802;50.846;7.958;2023-12-04T02:50:37;4.85;;;2.38;;
78508;SDS011;67802;50.846;7.958;2023-12-04T02:53:02;4.83;;;2.53;;
78508;SDS011;67802;50.846;7.958;2023-12-04T02:55:28;5.20;;;2.78;;
78508;SDS011;67802;50.846;7.958;2023-12-04T02:57:53;4.72;;;2.25;;
78508;SDS011;67802;50.846;7.958;2023-12-04T03:00:18;5.10;;;2.60;;
78508;SDS011;67802;50.846;7.958;2023-12-04T03:02:44;4.32;;;2.20;;
78508;SDS011;67802;50.846;7.958;2023-12-04T03:05:09;5.00;;;2.30;;
78508;SDS011;67802;50.846;7.958;2023-12-04T03:07:34;4.65;;;2.50;;
78508;SDS011;67802;50.846;7.958;2023-12-04T03:10:00;4.40;;;2.20;;
78508;SDS011;67802;50.846;7.958;2023-12-04T03:12:25;4.72;;;2.08;;
78508;SDS011;67802;50.846;7.958;2023-12-04T03:14:50;5.22;;;2.40;;
78508;SDS011;67802;50.846;7.958;2023-12-04T03:17:16;4.55;;;2.33;;
78508;SDS011;67802;50.846;7.958;2023-12-04T03:19:41;4.13;;;2.05;;
78508;SDS011;67802;50.846;7.958;2023-12-04T03:22:06;5.40;;;2.53;;
78508;SDS011;67802;50.846;7.958;2023-12-04T03:24:32;4.88;;;2.53;;
78508;SDS011;67802;50.846;7.958;2023-12-04T03:26:57;5.30;;;2.60;;
78508;SDS011;67802;50.846;7.958;2023-12-04T03:29:22;4.68;;;2.42;;
78508;SDS011;67802;50.846;7.958;2023-12-04T03:31:48;5.68;;;2.42;;
78508;SDS011;67802;50.846;7.958;2023-12-04T03:34:13;4.75;;;2.47;;
78508;SDS011;67802;50.846;7.958;2023-12-04T03:36:38;5.27;;;2.80;;
78508;SDS011;67802;50.846;7.958;2023-12-04T03:39:03;4.80;;;2.40;;
78508;SDS011;67802;50.846;7.958;2023-12-04T03:41:29;4.25;;;2.22;;
78508;SDS011;67802;50.846;7.958;2023-12-04T03:43:54;4.88;;;2.47;;
78508;SDS011;67802;50.846;7.958;2023-12-04T03:46:19;4.38;;;2.25;;
78508;SDS011;67802;50.846;7.958;2023-12-04T03:48:45;4.70;;;2.17;;
78508;SDS011;67802;50.846;7.958;2023-12-04T03:51:10;4.77;;;2.47;;
78508;SDS011;67802;50.846;7.958;2023-12-04T03:53:36;4.30;;;2.03;;
78508;SDS011;67802;50.846;7.958;2023-12-04T03:56:01;4.88;;;2.30;;
78508;SDS011;67802;50.846;7.958;2023-12-04T03:58:26;4.50;;;2.05;;
78508;SDS011;67802;50.846;7.958;2023-12-04T04:00:52;4.15;;;2.15;;
78508;SDS011;67802;50.846;7.958;2023-12-04T04:03:17;5.13;;;2.55;;
78508;SDS011;67802;50.846;7.958;2023-12-04T04:05:42;5.20;;;2.40;;
78508;SDS011;67802;50.846;7.958;2023-12-04T04:08:08;4.90;;;2.63;;
78508;SDS011;67802;50.846;7.958;2023-12-04T04:10:33;4.90;;;2.38;;
78508;SDS011;67802;50.846;7.958;2023-12-04T04:12:59;4.88;;;2.33;;
78508;SDS011;67802;50.846;7.958;2023-12-04T04:15:25;4.78;;;2.50;;
78508;SDS011;67802;50.846;7.958;2023-12-04T04:17:50;5.30;;;2.63;;
78508;SDS011;67802;50.846;7.958;2023-12-04T04:20:16;4.60;;;2.33;;
78508;SDS011;67802;50.846;7.958;2023-12-04T04:22:42;4.55;;;2.40;;
78508;SDS011;67802;50.846;7.958;2023-12-04T04:25:07;4.82;;;2.55;;
78508;SDS011;67802;50.846;7.958;2023-12-04T04:27:33;5.45;;;2.38;;
78508;SDS011;67802;50.846;7.958;2023-12-04T04:29:59;4.82;;;2.50;;
78508;SDS011;67802;50.846;7.958;2023-12-04T04:32:24;4.97;;;2.47;;
78508;SDS011;67802;50.846;7.958;2023-12-04T04:34:50;5.80;;;2.55;;
78508;SDS011;67802;50.846;7.958;2023-12-04T04:37:15;4.88;;;2.60;;
78508;SDS011;67802;50.846;7.958;2023-12-04T04:39:40;5.68;;;2.60;;
78508;SDS011;67802;50.846;7.958;2023-12-04T04:42:06;4.95;;;2.40;;
78508;SDS011;67802;50.846;7.958;2023-12-04T04:44:31;4.95;;;2.47;;
78508;SDS011;67802;50.846;7.958;2023-12-04T04:46:56;4.40;;;2.20;;
78508;SDS011;67802;50.846;7.958;2023-12-04T04:49:22;5.32;;;2.50;;
78508;SDS011;67802;50.846;7.958;2023-12-04T04:51:47;4.95;;;2.45;;
78508;SDS011;67802;50.846;7.958;2023-12-04T04:54:12;4.57;;;2.30;;
78508;SDS011;67802;50.846;7.958;2023-12-04T04:56:38;5.43;;;2.80;;
78508;SDS011;67802;50.846;7.958;2023-12-04T04:59:03;4.88;;;2.35;;
78508;SDS011;67802;50.846;7.958;2023-12-04T05:01:28;4.43;;;2.25;;
78508;SDS011;67802;50.846;7.958;2023-12-04T05:03:54;5.25;;;2.35;;
78508;SDS011;67802;50.846;7.958;2023-12-04T05:06:19;4.97;;;2.23;;
78508;SDS011;67802;50.846;7.958;2023-12-04T05:08:44;5.00;;;2.33;;
78508;SDS011;67802;50.846;7.958;2023-12-04T05:11:09;4.72;;;2.42;;
78508;SDS011;67802;50.846;7.958;2023-12-04T05:13:35;4.70;;;2.10;;
78508;SDS011;67802;50.846;7.958;2023-12-04T05:16:00;5.00;;;2.30;;
78508;SDS011;67802;50.846;7.958;2023-12-04T05:18:25;5.00;;;2.55;;
78508;SDS011;67802;50.846;7.958;2023-12-04T05:20:51;4.68;;;2.28;;
78508;SDS011;67802;50.846;7.958;2023-12-04T05:23:16;3.87;;;2.00;;
78508;SDS011;67802;50.846;7.958;2023-12-04T05:25:41;4.72;;;2.40;;
78508;SDS011;67802;50.846;7.958;2023-12-04T05:28:06;5.00;;;2.50;;
78508;SDS011;67802;50.846;7.958;2023-12-04T05:30:32;4.45;;;2.22;;
78508;SDS011;67802;50.846;7.958;2023-12-04T05:32:57;5.15;;;2.50;;
78508;SDS011;67802;50.846;7.958;2023-12-04T05:35:22;5.63;;;2.88;;
78508;SDS011;67802;50.846;7.958;2023-12-04T05:37:48;3.95;;;2.15;;
78508;SDS011;67802;50.846;7.958;2023-12-04T05:40:13;4.35;;;1.98;;
78508;SDS011;67802;50.846;7.958;2023-12-04T05:42:39;4.35;;;2.17;;
78508;SDS011;67802;50.846;7.958;2023-12-04T05:45:05;4.78;;;2.35;;
78508;SDS011;67802;50.846;7.958;2023-12-04T05:47:32;4.43;;;2.10;;
78508;SDS011;67802;50.846;7.958;2023-12-04T05:49:57;4.75;;;2.10;;
78508;SDS011;67802;50.846;7.958;2023-12-04T05:52:22;4.53;;;2.10;;
78508;SDS011;67802;50.846;7.958;2023-12-04T05:54:48;4.27;;;2.10;;
78508;SDS011;67802;50.846;7.958;2023-12-04T05:57:13;4.43;;;2.33;;
78508;SDS011;67802;50.846;7.958;2023-12-04T05:59:38;3.92;;;1.80;;
78508;SDS011;67802;50.846;7.958;2023-12-04T06:02:03;4.38;;;2.25;;
78508;SDS011;67802;50.846;7.958;2023-12-04T06:04:29;5.40;;;2.40;;
78508;SDS011;67802;50.846;7.958;2023-12-04T06:06:54;4.38;;;2.10;;
78508;SDS011;67802;50.846;7.958;2023-12-04T06:09:19;4.57;;;2.37;;
78508;SDS011;67802;50.846;7.958;2023-12-04T06:11:45;4.50;;;2.17;;
78508;SDS011;67802;50.846;7.958;2023-12-04T06:14:10;4.38;;;2.10;;
78508;SDS011;67802;50.846;7.958;2023-12-04T06:16:36;4.75;;;2.45;;
78508;SDS011;67802;50.846;7.958;2023-12-04T06:19:01;4.80;;;2.20;;
78508;SDS011;67802;50.846;7.958;2023-12-04T06:21:28;4.57;;;2.20;;
78508;SDS011;67802;50.846;7.958;2023-12-04T06:23:54;5.43;;;2.40;;
78508;SDS011;67802;50.846;7.958;2023-12-04T06:26:20;4.70;;;2.20;;
78508;SDS011;67802;50.846;7.958;2023-12-04T06:28:46;4.63;;;2.28;;
78508;SDS011;67802;50.846;7.958;2023-12-04T06:31:12;4.20;;;2.00;;
78508;SDS011;67802;50.846;7.958;2023-12-04T06:33:37;4.05;;;1.90;;
78508;SDS011;67802;50.846;7.958;2023-12-04T06:36:04;4.10;;;2.22;;
78508;SDS011;67802;50.846;7.958;2023-12-04T06:38:31;4.60;;;2.42;;
78508;SDS011;67802;50.846;7.958;2023-12-04T06:40:59;4.45;;;2.22;;
78508;SDS011;67802;50.846;7.958;2023-12-04T06:43:24;4.78;;;2.38;;
78508;SDS011;67802;50.846;7.958;2023-12-04T06:45:50;4.82;;;2.30;;
78508;SDS011;67802;50.846;7.958;2023-12-04T06:48:15;4.25;;;2.20;;
78508;SDS011;67802;50.846;7.958;2023-12-04T06:50:41;4.93;;;2.28;;
78508;SDS011;67802;50.846;7.958;2023-12-04T06:53:06;4.63;;;2.30;;
78508;SDS011;67802;50.846;7.958;2023-12-04T06:55:32;4.53;;;2.10;;
78508;SDS011;67802;50.846;7.958;2023-12-04T06:57:57;4.63;;;2.50;;
78508;SDS011;67802;50.846;7.958;2023-12-04T07:00:22;4.40;;;2.05;;
78508;SDS011;67802;50.846;7.958;2023-12-04T07:02:48;4.35;;;2.20;;
78508;SDS011;67802;50.846;7.958;2023-12-04T07:05:14;4.80;;;2.30;;
78508;SDS011;67802;50.846;7.958;2023-12-04T07:07:40;3.97;;;2.00;;
78508;SDS011;67802;50.846;7.958;2023-12-04T07:10:05;4.30;;;2.08;;
78508;SDS011;67802;50.846;7.958;2023-12-04T07:12:31;4.20;;;2.10;;
78508;SDS011;67802;50.846;7.958;2023-12-04T07:14:56;4.22;;;2.00;;
78508;SDS011;67802;50.846;7.958;2023-12-04T07:17:21;4.83;;;2.20;;
78508;SDS011;67802;50.846;7.958;2023-12-04T07:19:47;5.10;;;2.38;;
78508;SDS011;67802;50.846;7.958;2023-12-04T07:22:12;4.25;;;1.98;;
78508;SDS011;67802;50.846;7.958;2023-12-04T07:24:38;4.65;;;2.40;;
78508;SDS011;67802;50.846;7.958;2023-12-04T07:27:03;4.53;;;2.10;;
78508;SDS011;67802;50.846;7.958;2023-12-04T07:29:29;4.63;;;2.05;;
78508;SDS011;67802;50.846;7.958;2023-12-04T07:31:54;4.60;;;2.20;;
78508;SDS011;67802;50.846;7.958;2023-12-04T07:34:19;4.60;;;2.13;;
78508;SDS011;67802;50.846;7.958;2023-12-04T07:36:45;4.47;;;2.20;;
78508;SDS011;67802;50.846;7.958;2023-12-04T07:39:10;4.78;;;2.30;;
78508;SDS011;67802;50.846;7.958;2023-12-04T07:41:36;4.55;;;2.28;;
78508;SDS011;67802;50.846;7.958;2023-12-04T07:44:01;4.65;;;2.53;;
78508;SDS011;67802;50.846;7.958;2023-12-04T07:46:28;5.05;;;2.20;;
78508;SDS011;67802;50.846;7.958;2023-12-04T07:48:53;4.53;;;2.13;;
78508;SDS011;67802;50.846;7.958;2023-12-04T07:51:18;4.57;;;2.13;;
78508;SDS011;67802;50.846;7.958;2023-12-04T07:53:44;4.68;;;2.15;;
78508;SDS011;67802;50.846;7.958;2023-12-04T07:56:09;4.65;;;2.30;;
78508;SDS011;67802;50.846;7.958;2023-12-04T07:58:37;4.22;;;2.22;;
78508;SDS011;67802;50.846;7.958;2023-12-04T08:01:03;4.57;;;2.35;;
78508;SDS011;67802;50.846;7.958;2023-12-04T08:03:28;4.50;;;2.20;;
78508;SDS011;67802;50.846;7.958;2023-12-04T08:05:54;4.70;;;2.38;;
78508;SDS011;67802;50.846;7.958;2023-12-04T08:08:19;4.22;;;2.20;;
78508;SDS011;67802;50.846;7.958;2023-12-04T08:10:45;4.30;;;2.20;;
78508;SDS011;67802;50.846;7.958;2023-12-04T08:13:11;4.50;;;2.10;;
78508;SDS011;67802;50.846;7.958;2023-12-04T08:15:36;4.97;;;2.40;;
78508;SDS011;67802;50.846;7.958;2023-12-04T08:18:01;5.05;;;2.28;;
78508;SDS011;67802;50.846;7.958;2023-12-04T08:20:27;4.15;;;1.98;;
78508;SDS011;67802;50.846;7.958;2023-12-04T08:22:53;4.38;;;2.10;;
78508;SDS011;67802;50.846;7.958;2023-12-04T08:25:19;4.50;;;2.10;;
78508;SDS011;67802;50.846;7.958;2023-12-04T08:27:45;4.30;;;1.92;;
78508;SDS011;67802;50.846;7.958;2023-12-04T08:30:10;4.10;;;2.00;;
78508;SDS011;67802;50.846;7.958;2023-12-04T08:32:36;4.03;;;1.83;;
78508;SDS011;67802;50.846;7.958;2023-12-04T08:35:01;4.75;;;2.30;;
78508;SDS011;67802;50.846;7.958;2023-12-04T08:37:27;4.72;;;2.30;;
78508;SDS011;67802;50.846;7.958;2023-12-04T08:39:52;4.07;;;1.88;;
78508;SDS011;67802;50.846;7.958;2023-12-04T08:42:18;4.50;;;2.05;;
78508;SDS011;67802;50.846;7.958;2023-12-04T08:44:43;4.32;;;2.22;;
78508;SDS011;67802;50.846;7.958;2023-12-04T08:47:10;4.45;;;2.22;;
78508;SDS011;67802;50.846;7.958;2023-12-04T08:49:37;4.05;;;1.95;;
78508;SDS011;67802;50.846;7.958;2023-12-04T08:52:05;4.10;;;1.80;;
78508;SDS011;67802;50.846;7.958;2023-12-04T08:54:30;4.15;;;1.98;;
78508;SDS011;67802;50.846;7.958;2023-12-04T08:56:56;4.03;;;1.87;;
78508;SDS011;67802;50.846;7.958;2023-12-04T08:59:21;3.77;;;1.80;;
78508;SDS011;67802;50.846;7.958;2023-12-04T09:01:46;4.10;;;1.90;;
78508;SDS011;67802;50.846;7.958;2023-12-04T09:04:11;4.10;;;2.00;;
78508;SDS011;67802;50.846;7.958;2023-12-04T09:06:37;4.80;;;2.10;;
78508;SDS011;67802;50.846;7.958;2023-12-04T09:09:03;4.15;;;2.30;;
78508;SDS011;67802;50.846;7.958;2023-12-04T09:11:28;4.60;;;2.00;;
78508;SDS011;67802;50.846;7.958;2023-12-04T09:13:54;4.33;;;2.10;;
78508;SDS011;67802;50.846;7.958;2023-12-04T09:16:19;4.65;;;2.50;;
78508;SDS011;67802;50.846;7.958;2023-12-04T09:18:45;4.75;;;2.42;;
78508;SDS011;67802;50.846;7.958;2023-12-04T09:21:11;4.45;;;2.30;;
78508;SDS011;67802;50.846;7.958;2023-12-04T09:23:36;4.30;;;2.07;;
78508;SDS011;67802;50.846;7.958;2023-12-04T09:26:01;4.33;;;1.97;;
78508;SDS011;67802;50.846;7.958;2023-12-04T09:28:27;5.30;;;2.50;;
78508;SDS011;67802;50.846;7.958;2023-12-04T09:30:52;4.63;;;1.90;;
78508;SDS011;67802;50.846;7.958;2023-12-04T09:33:18;4.22;;;2.10;;
78508;SDS011;67802;50.846;7.958;2023-12-04T09:35:43;4.55;;;2.20;;
78508;SDS011;67802;50.846;7.958;2023-12-04T09:38:09;4.67;;;2.17;;
78508;SDS011;67802;50.846;7.958;2023-12-04T09:40:35;4.68;;;2.28;;
78508;SDS011;67802;50.846;7.958;2023-12-04T09:43:00;5.18;;;2.17;;
78508;SDS011;67802;50.846;7.958;2023-12-04T09:45:26;4.60;;;2.22;;
78508;SDS011;67802;50.846;7.958;2023-12-04T09:47:53;3.80;;;1.92;;
78508;SDS011;67802;50.846;7.958;2023-12-04T09:50:20;4.28;;;2.00;;
78508;SDS011;67802;50.846;7.958;2023-12-04T09:52:50;4.57;;;2.15;;
78508;SDS011;67802;50.846;7.958;2023-12-04T09:55:17;4.57;;;2.10;;
78508;SDS011;67802;50.846;7.958;2023-12-04T09:57:45;4.47;;;1.98;;
78508;SDS011;67802;50.846;7.958;2023-12-04T10:00:15;4.30;;;2.33;;
78508;SDS011;67802;50.846;7.958;2023-12-04T10:02:41;5.43;;;2.20;;
78508;SDS011;67802;50.846;7.958;2023-12-04T10:05:08;4.68;;;2.33;;
78508;SDS011;67802;50.846;7.958;2023-12-04T10:07:34;5.45;;;2.70;;
78508;SDS011;67802;50.846;7.958;2023-12-04T10:09:59;4.82;;;2.28;;
78508;SDS011;67802;50.846;7.958;2023-12-04T10:12:25;4.55;;;2.13;;
78508;SDS011;67802;50.846;7.958;2023-12-04T10:15:06;4.43;;;2.30;;
78508;SDS011;67802;50.846;7.958;2023-12-04T10:17:36;4.38;;;2.30;;
78508;SDS011;67802;50.846;7.958;2023-12-04T10:20:04;5.40;;;2.40;;
78508;SDS011;67802;50.846;7.958;2023-12-04T10:22:51;5.15;;;2.42;;
78508;SDS011;67802;50.846;7.958;2023-12-04T10:25:17;4.80;;;2.13;;
78508;SDS011;67802;50.846;7.958;2023-12-04T10:27:43;4.55;;;2.30;;
78508;SDS011;67802;50.846;7.958;2023-12-04T10:30:09;4.70;;;2.45;;
78508;SDS011;67802;50.846;7.958;2023-12-04T10:32:46;4.70;;;2.40;;
78508;SDS011;67802;50.846;7.958;2023-12-04T10:35:12;5.47;;;2.30;;
78508;SDS011;67802;50.846;7.958;2023-12-04T10:37:38;5.20;;;2.40;;
78508;SDS011;67802;50.846;7.958;2023-12-04T10:40:04;3.97;;;1.90;;
78508;SDS011;67802;50.846;7.958;2023-12-04T10:42:33;4.88;;;2.22;;
78508;SDS011;67802;50.846;7.958;2023-12-04T10:44:59;4.60;;;2.15;;
78508;SDS011;67802;50.846;7.958;2023-12-04T10:47:25;4.82;;;2.50;;
78508;SDS011;67802;50.846;7.958;2023-12-04T10:49:52;4.20;;;2.15;;
78508;SDS011;67802;50.846;7.958;2023-12-04T10:52:18;4.15;;;2.15;;
78508;SDS011;67802;50.846;7.958;2023-12-04T10:54:45;4.85;;;2.30;;
78508;SDS011;67802;50.846;7.958;2023-12-04T10:57:16;5.15;;;2.30;;
78508;SDS011;67802;50.846;7.958;2023-12-04T10:59:46;4.88;;;2.35;;
78508;SDS011;67802;50.846;7.958;2023-12-04T11:02:13;4.40;;;2.17;;
78508;SDS011;67802;50.846;7.958;2023-12-04T11:04:46;4.80;;;2.08;;
78508;SDS011;67802;50.846;7.958;2023-12-04T11:07:18;4.35;;;2.17;;
78508;SDS011;67802;50.846;7.958;2023-12-04T11:09:44;4.00;;;1.88;;
78508;SDS011;67802;50.846;7.958;2023-12-04T11:12:14;4.88;;;2.20;;
78508;SDS011;67802;50.846;7.958;2023-12-04T11:14:44;5.38;;;2.00;;
78508;SDS011;67802;50.846;7.958;2023-12-04T11:17:14;4.60;;;2.08;;
78508;SDS011;67802;50.846;7.958;2023-12-04T11:22:07;4.40;;;2.28;;
78508;SDS011;67802;50.846;7.958;2023-12-04T11:24:35;4.88;;;2.38;;
78508;SDS011;67802;50.846;7.958;2023-12-04T11:27:01;4.93;;;2.17;;
78508;SDS011;67802;50.846;7.958;2023-12-04T11:29:27;4.95;;;2.40;;
78508;SDS011;67802;50.846;7.958;2023-12-04T11:31:54;5.90;;;2.08;;
78508;SDS011;67802;50.846;7.958;2023-12-04T11:34:19;4.28;;;1.92;;
78508;SDS011;67802;50.846;7.958;2023-12-04T11:36:45;4.45;;;2.10;;
78508;SDS011;67802;50.846;7.958;2023-12-04T11:39:10;4.20;;;2.08;;
78508;SDS011;67802;50.846;7.958;2023-12-04T11:41:36;5.30;;;2.05;;
78508;SDS011;67802;50.846;7.958;2023-12-04T11:44:02;4.10;;;1.90;;
78508;SDS011;67802;50.846;7.958;2023-12-04T11:46:28;4.53;;;2.00;;
78508;SDS011;67802;50.846;7.958;2023-12-04T11:48:56;4.43;;;1.98;;
78508;SDS011;67802;50.846;7.958;2023-12-04T11:54:16;3.97;;;1.80;;
78508;SDS011;67802;50.846;7.958;2023-12-04T11:56:58;4.20;;;1.80;;
78508;SDS011;67802;50.846;7.958;2023-12-04T11:59:26;4.63;;;2.03;;
78508;SDS011;67802;50.846;7.958;2023-12-04T12:01:54;4.13;;;1.85;;
78508;SDS011;67802;50.846;7.958;2023-12-04T12:04:22;3.97;;;1.88;;
78508;SDS011;67802;50.846;7.958;2023-12-04T12:06:48;4.20;;;2.05;;
78508;SDS011;67802;50.846;7.958;2023-12-04T12:09:13;4.32;;;2.10;;
78508;SDS011;67802;50.846;7.958;2023-12-04T12:11:39;4.50;;;2.10;;
78508;SDS011;67802;50.846;7.958;2023-12-04T12:14:04;5.15;;;2.00;;
78508;SDS011;67802;50.846;7.958;2023-12-04T12:16:31;4.15;;;1.92;;
78508;SDS011;67802;50.846;7.958;2023-12-04T12:18:57;4.40;;;2.05;;
78508;SDS011;67802;50.846;7.958;2023-12-04T12:21:22;3.80;;;1.65;;
78508;SDS011;67802;50.846;7.958;2023-12-04T12:23:47;4.38;;;2.10;;
78508;SDS011;67802;50.846;7.958;2023-12-04T12:26:13;4.60;;;1.95;;
78508;SDS011;67802;50.846;7.958;2023-12-04T12:28:38;4.28;;;1.85;;
78508;SDS011;67802;50.846;7.958;2023-12-04T12:31:04;4.70;;;2.27;;
78508;SDS011;67802;50.846;7.958;2023-12-04T12:33:29;4.18;;;2.00;;
78508;SDS011;67802;50.846;7.958;2023-12-04T12:35:55;4.65;;;2.20;;
78508;SDS011;67802;50.846;7.958;2023-12-04T12:38:21;4.25;;;1.98;;
78508;SDS011;67802;50.846;7.958;2023-12-04T12:40:47;3.63;;;1.80;;
78508;SDS011;67802;50.846;7.958;2023-12-04T12:43:12;4.05;;;1.98;;
78508;SDS011;67802;50.846;7.958;2023-12-04T12:45:41;4.30;;;2.13;;
78508;SDS011;67802;50.846;7.958;2023-12-04T12:48:12;4.32;;;2.00;;
78508;SDS011;67802;50.846;7.958;2023-12-04T12:50:38;4.40;;;1.95;;
78508;SDS011;67802;50.846;7.958;2023-12-04T12:53:03;4.47;;;2.00;;
78508;SDS011;67802;50.846;7.958;2023-12-04T12:55:28;4.70;;;2.13;;
78508;SDS011;67802;50.846;7.958;2023-12-04T12:57:56;3.90;;;1.80;;
78508;SDS011;67802;50.846;7.958;2023-12-04T13:00:22;4.32;;;2.10;;
78508;SDS011;67802;50.846;7.958;2023-12-04T13:02:48;4.55;;;2.15;;
78508;SDS011;67802;50.846;7.958;2023-12-04T13:05:13;5.03;;;2.28;;
78508;SDS011;67802;50.846;7.958;2023-12-04T13:07:39;4.22;;;1.83;;
78508;SDS011;67802;50.846;7.958;2023-12-04T13:10:04;4.70;;;2.10;;
78508;SDS011;67802;50.846;7.958;2023-12-04T13:12:30;4.43;;;1.90;;
78508;SDS011;67802;50.846;7.958;2023-12-04T13:14:57;4.80;;;1.90;;
78508;SDS011;67802;50.846;7.958;2023-12-04T13:17:22;4.75;;;2.00;;
78508;SDS011;67802;50.846;7.958;2023-12-04T13:19:48;4.23;;;2.03;;
78508;SDS011;67802;50.846;7.958;2023-12-04T13:22:13;4.00;;;2.00;;
78508;SDS011;67802;50.846;7.958;2023-12-04T13:24:38;4.28;;;1.90;;
78508;SDS011;67802;50.846;7.958;2023-12-04T13:27:05;3.83;;;1.67;;
78508;SDS011;67802;50.846;7.958;2023-12-04T13:29:30;3.90;;;1.67;;
78508;SDS011;67802;50.846;7.958;2023-12-04T13:31:56;4.25;;;1.90;;
78508;SDS011;67802;50.846;7.958;2023-12-04T13:34:21;4.00;;;2.00;;
78508;SDS011;67802;50.846;7.958;2023-12-04T13:36:47;4.10;;;1.80;;
78508;SDS011;67802;50.846;7.958;2023-12-04T13:39:12;4.32;;;1.70;;
78508;SDS011;67802;50.846;7.958;2023-12-04T13:41:47;3.72;;;1.50;;
78508;SDS011;67802;50.846;7.958;2023-12-04T13:44:31;3.28;;;1.55;;
78508;SDS011;67802;50.846;7.958;2023-12-04T13:46:58;4.43;;;1.83;;
78508;SDS011;67802;50.846;7.958;2023-12-04T13:49:23;5.53;;;2.00;;
78508;SDS011;67802;50.846;7.958;2023-12-04T13:51:49;3.90;;;1.63;;
78508;SDS011;67802;50.846;7.958;2023-12-04T13:54:14;4.07;;;1.70;;
78508;SDS011;67802;50.846;7.958;2023-12-04T13:56:45;4.03;;;1.83;;
78508;SDS011;67802;50.846;7.958;2023-12-04T13:59:18;4.63;;;2.00;;
78508;SDS011;67802;50.846;7.958;2023-12-04T14:01:45;4.20;;;1.88;;
78508;SDS011;67802;50.846;7.958;2023-12-04T14:04:11;4.68;;;2.20;;
78508;SDS011;67802;50.846;7.958;2023-12-04T14:06:36;3.85;;;1.70;;
78508;SDS011;67802;50.846;7.958;2023-12-04T14:09:02;4.30;;;1.77;;
78508;SDS011;67802;50.846;7.958;2023-12-04T14:11:30;4.00;;;1.75;;
78508;SDS011;67802;50.846;7.958;2023-12-04T14:13:55;4.20;;;1.90;;
78508;SDS011;67802;50.846;7.958;2023-12-04T14:16:21;4.72;;;1.98;;
78508;SDS011;67802;50.846;7.958;2023-12-04T14:18:46;4.68;;;2.10;;
78508;SDS011;67802;50.846;7.958;2023-12-04T14:21:11;3.72;;;1.65;;
78508;SDS011;67802;50.846;7.958;2023-12-04T14:23:37;4.18;;;1.80;;
78508;SDS011;67802;50.846;7.958;2023-12-04T14:26:02;3.80;;;1.65;;
78508;SDS011;67802;50.846;7.958;2023-12-04T14:28:28;4.47;;;1.88;;
78508;SDS011;67802;50.846;7.958;2023-12-04T14:30:53;4.15;;;2.00;;
78508;SDS011;67802;50.846;7.958;2023-12-04T14:33:19;4.20;;;1.83;;
78508;SDS011;67802;50.846;7.958;2023-12-04T14:35:45;3.63;;;1.58;;
78508;SDS011;67802;50.846;7.958;2023-12-04T14:38:10;4.32;;;1.95;;
78508;SDS011;67802;50.846;7.958;2023-12-04T14:40:35;5.95;;;1.95;;
78508;SDS011;67802;50.846;7.958;2023-12-04T14:43:01;4.80;;;1.83;;
78508;SDS011;67802;50.846;7.958;2023-12-04T14:45:26;6.38;;;1.95;;